createdAt,value
2023-03-17T14:28:12.149Z,100310.88
2023-03-17T14:30:16.596Z,100298.11
2023-03-17T14:32:21.073Z,100290.98
2023-03-17T14:34:25.496Z,100287.11
2023-03-17T14:36:29.901Z,100278.45
2023-03-17T14:38:34.360Z,100269.78
2023-03-17T14:40:38.817Z,100275.28
2023-03-17T14:42:43.347Z,100273
2023-03-17T14:44:47.789Z,100274.05
2023-03-17T14:46:52.185Z,100263.77
2023-03-17T14:48:56.620Z,100262.5
2023-03-17T14:51:01.005Z,100258.14
2023-03-17T14:53:05.469Z,100255.09
2023-03-17T14:55:09.890Z,100249.83
2023-03-17T14:57:14.332Z,100254.89
2023-03-17T14:59:18.828Z,100249.98
2023-03-17T15:01:23.351Z,100242.95
2023-03-17T15:03:28.304Z,100244.52
2023-03-17T15:05:33.519Z,100237.38
2023-03-17T15:07:38.000Z,100244.03
2023-03-17T15:09:42.437Z,100238.36
2023-03-17T15:11:46.946Z,100231.41
2023-03-17T15:13:51.442Z,100232.77
2023-03-17T15:15:55.859Z,100228.75
2023-03-17T15:18:00.230Z,100230.13
2023-03-17T15:20:04.875Z,100223.8
2023-03-17T15:22:09.447Z,100226.67
2023-03-17T15:24:13.904Z,100225.53
2023-03-17T15:26:18.323Z,100220.72
2023-03-17T15:28:22.730Z,100222.08
2023-03-17T15:30:46.136Z,100219.75
2023-03-17T15:32:52.370Z,100221.77
2023-03-17T15:34:57.128Z,100225.52
2023-03-17T15:37:01.613Z,100221.97
2023-03-17T15:39:06.051Z,100228.64
2023-03-17T15:41:10.470Z,100221.64
2023-03-17T15:43:14.999Z,100223.82
2023-03-17T15:45:19.445Z,100222.3
2023-03-17T15:47:23.886Z,100219.37
2023-03-17T15:49:28.372Z,100223.33
2023-03-17T15:51:32.762Z,100216.34
2023-03-17T15:53:37.219Z,100220.78
2023-03-17T15:55:41.795Z,100212.23
2023-03-17T15:57:55.856Z,100226.61
2023-03-17T16:00:00.362Z,100221.16
2023-03-17T16:02:04.858Z,100225.13
2023-03-17T16:04:09.537Z,100218.22
2023-03-17T16:06:14.050Z,100218.17
2023-03-17T16:08:18.475Z,100215.71
2023-03-17T16:10:22.902Z,100211.16
2023-03-17T16:12:27.455Z,100205.46
2023-03-17T16:14:31.906Z,100210.83
2023-03-17T16:16:36.420Z,100210.44
2023-03-17T16:18:40.901Z,100210.61
2023-03-17T16:20:45.332Z,100209.86
2023-03-17T16:22:49.750Z,100215.12
2023-03-17T16:24:54.184Z,100218.91
2023-03-17T16:26:58.623Z,100216.64
2023-03-17T16:29:03.016Z,100216.61
2023-03-17T16:31:09.772Z,100217.7
2023-03-17T16:33:14.353Z,100220.08
2023-03-17T16:35:18.843Z,100224.01
2023-03-17T16:37:23.229Z,100228.69
2023-03-17T16:39:27.586Z,100229.29
2023-03-17T16:41:31.983Z,100227.04
2023-03-17T16:43:36.392Z,100224.48
2023-03-17T16:45:40.872Z,100223.2
2023-03-17T16:47:45.267Z,100215.91
2023-03-17T16:49:49.725Z,100212.39
2023-03-17T16:51:54.241Z,100212.17
2023-03-17T16:53:58.639Z,100209.67
2023-03-17T16:56:03.195Z,100208.27
2023-03-17T16:58:07.636Z,100219.98
2023-03-17T17:00:12.060Z,100210.08
2023-03-17T17:02:16.457Z,100210.3
2023-03-17T17:04:20.872Z,100214.19
2023-03-17T17:06:25.295Z,100220.23
2023-03-17T17:08:29.745Z,100217.06
2023-03-17T17:10:34.626Z,100222.02
2023-03-17T17:12:39.120Z,100225.47
2023-03-17T17:14:43.562Z,100224.25
2023-03-17T17:16:47.981Z,100224.95
2023-03-17T17:18:52.459Z,100222.69
2023-03-17T17:20:56.906Z,100229.75
2023-03-17T17:23:01.272Z,100231.45
2023-03-17T17:25:05.863Z,100231.67
2023-03-17T17:27:10.336Z,100233.45
2023-03-17T17:29:14.857Z,100234.17
2023-03-17T17:31:19.530Z,100232.14
2023-03-17T17:33:24.007Z,100227.91
2023-03-17T17:35:30.045Z,100227.98
2023-03-17T17:37:36.612Z,100225.71
2023-03-17T17:39:41.128Z,100226.29
2023-03-17T17:41:45.544Z,100228.59
2023-03-17T17:43:50.129Z,100228.45
2023-03-17T17:45:54.793Z,100230.12
2023-03-17T17:47:59.207Z,100230.39
2023-03-17T17:50:03.733Z,100229.67
2023-03-17T17:52:08.176Z,100238.34
2023-03-17T17:54:12.681Z,100236.48
2023-03-17T17:56:17.122Z,100241.55
2023-03-17T17:58:21.582Z,100235.3
2023-03-17T18:00:26.000Z,100235.92
2023-03-17T18:02:30.420Z,100229.55
2023-03-17T18:04:34.977Z,100226.98
2023-03-17T18:06:39.439Z,100223.8
2023-03-17T18:08:43.861Z,100229.98
2023-03-17T18:10:50.202Z,100225.02
2023-03-17T18:12:56.187Z,100225.84
2023-03-17T18:15:00.754Z,100228.3
2023-03-17T18:17:05.178Z,100224.84
2023-03-17T18:19:09.621Z,100219.39
2023-03-17T18:21:14.148Z,100218.71
2023-03-17T18:23:18.603Z,100209.3
2023-03-17T18:25:22.994Z,100210.31
2023-03-17T18:27:27.411Z,100212.43
2023-03-17T18:29:31.817Z,100212.77
2023-03-17T18:31:36.467Z,100213.84
2023-03-17T18:33:40.997Z,100215.58
2023-03-17T18:35:45.557Z,100208.66
2023-03-17T18:37:50.299Z,100214.88
2023-03-17T18:40:17.120Z,100211.99
2023-03-17T18:42:23.004Z,100210.91
2023-03-17T18:44:27.464Z,100210.65
2023-03-17T18:46:31.860Z,100211.44
2023-03-17T18:48:36.374Z,100209.33
2023-03-17T18:50:40.920Z,100214.02
2023-03-17T18:52:45.298Z,100206.11
2023-03-17T18:54:49.699Z,100213.7
2023-03-17T18:56:54.110Z,100218.22
2023-03-17T18:58:58.522Z,100217.21
2023-03-17T19:01:03.063Z,100217.8
2023-03-17T19:03:07.697Z,100219.72
2023-03-17T19:05:12.302Z,100219.11
2023-03-17T19:07:16.704Z,100215.93
2023-03-17T19:09:21.134Z,100217.43
2023-03-17T19:11:25.580Z,100218.24
2023-03-17T19:13:30.015Z,100218.75
2023-03-17T19:15:34.423Z,100216.79
2023-03-17T19:17:38.882Z,100216.74
2023-03-17T19:19:43.326Z,100214.92
2023-03-17T19:21:47.869Z,100224.1
2023-03-17T19:23:52.331Z,100225.3
2023-03-17T19:25:56.865Z,100221.35
2023-03-17T19:28:01.273Z,100224.48
2023-03-17T19:30:05.707Z,100224.91
2023-03-17T19:32:10.199Z,100219.89
2023-03-17T19:34:14.728Z,100219.75
2023-03-17T19:36:19.214Z,100217.98
2023-03-17T19:38:23.680Z,100219.91
2023-03-17T19:40:28.138Z,100222.19
2023-03-17T19:42:32.794Z,100215.47
2023-03-17T19:44:37.232Z,100218.53
2023-03-17T19:46:41.772Z,100219.44
2023-03-17T19:48:46.246Z,100215.88
2023-03-17T19:50:50.666Z,100216.37
2023-03-17T19:52:55.065Z,100214.59
2023-03-17T19:54:59.608Z,100218.1
2023-03-17T19:57:04.014Z,100217.63
2023-03-17T19:59:08.473Z,100219.23
2023-03-17T20:01:13.032Z,100216.95
2023-03-17T20:03:17.608Z,100214.7
2023-03-17T20:05:22.041Z,100217.13
2023-03-17T20:07:26.564Z,100214.49
2023-03-17T20:09:31.121Z,100204.05
2023-03-17T20:11:35.691Z,100205.3
2023-03-17T20:13:40.201Z,100201.53
2023-03-17T20:15:44.927Z,100193.8
2023-03-17T20:17:49.533Z,100191.42
2023-03-17T20:19:53.976Z,100189.78
2023-03-17T20:21:58.459Z,100193.91
2023-03-17T20:24:02.865Z,100185.42
2023-03-17T20:26:07.259Z,100186.39
2023-03-17T20:28:11.718Z,100183.44
2023-03-17T20:30:16.181Z,100177.45
2023-03-17T20:32:20.709Z,100178.52
2023-03-17T20:34:25.152Z,100177.23
2023-03-17T20:36:29.600Z,100178.62
2023-03-17T20:38:34.018Z,100177.02
2023-03-17T20:40:38.438Z,100181.13
2023-03-17T20:42:43.030Z,100178.05
2023-03-17T20:44:47.421Z,100178.62
2023-03-17T20:46:51.990Z,100179.89
2023-03-17T20:48:56.763Z,100180.98
2023-03-17T20:51:01.281Z,100182.59
2023-03-17T20:53:05.694Z,100181.94
2023-03-17T20:55:10.083Z,100184.28
2023-03-17T20:57:14.555Z,100184.78
2023-03-17T20:59:18.952Z,100183.65
2023-03-17T21:01:23.533Z,100178.71
2023-03-17T21:03:28.090Z,100175.73
2023-03-17T21:05:32.503Z,100172.14
2023-03-17T21:07:36.914Z,100173.06
2023-03-17T21:09:41.316Z,100174.28
2023-03-17T21:11:45.772Z,100180.39
2023-03-17T21:13:50.192Z,100175.67
2023-03-17T21:15:54.821Z,100176.59
2023-03-17T21:17:59.282Z,100173.34
2023-03-17T21:20:03.843Z,100170.98
2023-03-17T21:22:08.286Z,100162.8
2023-03-17T21:24:12.681Z,100163.61
2023-03-17T21:26:17.099Z,100161.73
2023-03-17T21:28:21.549Z,100162.91
2023-03-17T21:30:26.009Z,100161.45
2023-03-17T21:32:30.523Z,100158.02
